createdAt,value
2022-12-31T00:01:02.201Z,99.90
2022-12-31T00:02:49.520Z,99.90
2022-12-31T00:04:36.594Z,99.90
2022-12-31T00:06:25.759Z,99.90
2022-12-31T00:08:13.397Z,99.90
2022-12-31T00:10:00.562Z,99.90
2022-12-31T00:11:48.004Z,99.90
2022-12-31T00:13:35.121Z,99.90
2022-12-31T00:15:22.119Z,99.90
2022-12-31T00:17:10.279Z,99.90
2022-12-31T00:18:59.386Z,99.90
2022-12-31T00:20:46.370Z,99.90
2022-12-31T00:22:33.687Z,99.90
2022-12-31T00:24:20.706Z,99.90
2022-12-31T00:26:09.873Z,99.90
2022-12-31T00:27:57.201Z,99.90
2022-12-31T00:29:44.230Z,99.90
2022-12-31T00:31:36.672Z,99.90
2022-12-31T00:33:24.048Z,96.40
2022-12-31T00:35:11.068Z,60.00
2022-12-31T00:36:58.045Z,51.90
2022-12-31T00:38:46.504Z,48.00
2022-12-31T00:40:33.537Z,9.20
2022-12-31T00:42:21.318Z,1.00
2022-12-31T00:44:09.332Z,1.00
2022-12-31T00:45:56.606Z,1.00
2022-12-31T00:47:43.607Z,1.00
2022-12-31T00:49:30.970Z,1.00
2022-12-31T00:51:19.115Z,1.00
2022-12-31T00:53:06.138Z,99.90
2022-12-31T00:54:53.378Z,1.00
2022-12-31T00:56:40.423Z,99.90
2022-12-31T00:58:27.722Z,99.90
2022-12-31T01:00:15.689Z,99.90
2022-12-31T01:02:02.811Z,99.90
2022-12-31T01:03:51.688Z,99.90
2022-12-31T01:05:39.317Z,99.90
2022-12-31T01:07:26.510Z,99.90
2022-12-31T01:09:14.416Z,99.90
2022-12-31T01:11:22.499Z,99.90
2022-12-31T01:13:10.077Z,99.90
2022-12-31T01:14:57.179Z,99.90
2022-12-31T01:16:44.435Z,99.90
2022-12-31T01:18:31.442Z,99.90
2022-12-31T01:20:18.423Z,99.90
2022-12-31T01:22:05.707Z,99.90
2022-12-31T01:23:52.771Z,99.90
2022-12-31T01:25:41.848Z,99.90
2022-12-31T01:27:29.416Z,99.90
2022-12-31T01:29:17.057Z,99.90
2022-12-31T01:31:07.823Z,99.90
2022-12-31T01:32:55.734Z,99.90
2022-12-31T01:34:42.854Z,99.90
2022-12-31T01:36:30.841Z,99.90
2022-12-31T01:38:18.141Z,99.90
2022-12-31T01:40:06.111Z,99.90
2022-12-31T01:41:53.418Z,99.90
2022-12-31T01:44:01.050Z,99.90
2022-12-31T01:45:49.727Z,99.90
2022-12-31T01:47:42.128Z,99.90
2022-12-31T01:49:36.778Z,99.90
2022-12-31T01:51:24.951Z,99.90
2022-12-31T01:53:12.129Z,99.90
2022-12-31T01:55:14.063Z,99.90
2022-12-31T01:57:01.542Z,99.90
2022-12-31T01:58:49.691Z,99.90
2022-12-31T02:00:37.013Z,99.90
2022-12-31T02:02:24.496Z,99.90
2022-12-31T02:04:12.698Z,99.90
2022-12-31T02:06:05.585Z,99.90
2022-12-31T02:07:53.684Z,99.90
2022-12-31T02:09:41.903Z,99.90
2022-12-31T02:11:36.454Z,99.90
2022-12-31T02:13:23.578Z,1.00
2022-12-31T02:15:10.783Z,1.00
2022-12-31T02:17:04.623Z,1.00
2022-12-31T02:18:56.272Z,1.00
2022-12-31T02:20:52.693Z,1.00
2022-12-31T02:22:51.994Z,1.00
2022-12-31T02:24:45.964Z,1.00
2022-12-31T02:26:42.144Z,1.00
2022-12-31T02:28:48.049Z,1.00
2022-12-31T02:30:36.360Z,15.50
2022-12-31T02:32:28.299Z,49.60
2022-12-31T02:34:18.861Z,67.90
2022-12-31T02:36:08.552Z,86.50
2022-12-31T02:37:58.992Z,85.80
2022-12-31T02:39:46.697Z,94.20
2022-12-31T02:41:51.767Z,99.90
2022-12-31T02:43:46.048Z,99.90
2022-12-31T02:45:45.105Z,99.90
2022-12-31T02:47:34.884Z,99.90
2022-12-31T02:49:45.320Z,99.90
2022-12-31T02:51:41.960Z,99.90
2022-12-31T02:53:43.976Z,99.90
2022-12-31T02:55:44.899Z,99.90
2022-12-31T02:57:40.473Z,99.90
2022-12-31T03:00:00.528Z,99.90
2022-12-31T03:02:09.228Z,99.90
2022-12-31T03:04:16.697Z,99.90
2022-12-31T03:06:04.531Z,99.90
2022-12-31T03:07:51.605Z,99.90
2022-12-31T03:09:39.228Z,99.90
2022-12-31T03:11:44.730Z,99.90
2022-12-31T03:13:31.686Z,99.90
2022-12-31T03:15:21.193Z,99.90
2022-12-31T03:17:08.572Z,99.90
2022-12-31T03:19:13.999Z,99.90
2022-12-31T03:21:30.338Z,99.90
2022-12-31T03:23:23.046Z,99.90
2022-12-31T03:25:31.417Z,99.90
2022-12-31T03:27:18.758Z,99.90
2022-12-31T03:29:05.751Z,99.90
2022-12-31T03:30:58.552Z,99.90
2022-12-31T03:32:47.007Z,99.90
2022-12-31T03:34:34.084Z,99.90
2022-12-31T03:36:21.045Z,99.90
2022-12-31T03:38:08.806Z,99.90
2022-12-31T03:39:55.848Z,99.90
2022-12-31T03:41:42.862Z,99.90
2022-12-31T03:43:30.130Z,99.90
2022-12-31T03:45:17.196Z,99.90
2022-12-31T03:47:04.237Z,99.90
2022-12-31T03:48:51.557Z,99.90
2022-12-31T03:50:38.562Z,99.90
2022-12-31T03:52:25.626Z,99.90
2022-12-31T03:54:12.935Z,99.90
2022-12-31T03:55:59.957Z,99.90
2022-12-31T03:57:47.132Z,99.90
2022-12-31T03:59:34.582Z,99.90
2022-12-31T04:01:24.321Z,99.90
2022-12-31T04:03:11.467Z,99.90
2022-12-31T04:04:58.809Z,99.90
2022-12-31T04:06:45.811Z,99.90
2022-12-31T04:08:32.765Z,99.90
2022-12-31T04:10:20.628Z,99.90
2022-12-31T04:12:07.675Z,99.90
2022-12-31T04:13:55.413Z,99.90
2022-12-31T04:15:42.945Z,1.00
2022-12-31T04:17:30.034Z,1.00
2022-12-31T04:19:17.150Z,1.00
2022-12-31T04:21:05.450Z,1.00
2022-12-31T04:22:52.433Z,1.00
2022-12-31T04:24:39.569Z,1.00
2022-12-31T04:26:26.895Z,1.00
2022-12-31T04:28:13.942Z,39.60
2022-12-31T04:30:00.896Z,99.90
2022-12-31T04:31:48.273Z,99.90
2022-12-31T04:33:36.450Z,99.90
2022-12-31T04:35:25.445Z,99.90
2022-12-31T04:37:12.689Z,99.90
2022-12-31T04:38:59.792Z,99.90
2022-12-31T04:41:05.312Z,99.90
2022-12-31T04:42:52.645Z,99.90
2022-12-31T04:44:39.572Z,99.90
2022-12-31T04:46:28.138Z,99.90
2022-12-31T04:48:15.393Z,99.30
2022-12-31T04:50:02.888Z,99.90
2022-12-31T04:51:49.901Z,81.20
2022-12-31T04:53:37.343Z,68.10
2022-12-31T04:55:24.382Z,50.30
2022-12-31T04:57:11.371Z,67.30
2022-12-31T04:59:00.372Z,38.90
2022-12-31T05:00:49.837Z,25.90
2022-12-31T05:02:37.172Z,11.80
2022-12-31T05:04:24.733Z,13.70
2022-12-31T05:06:16.010Z,6.00
2022-12-31T05:08:05.093Z,1.00
2022-12-31T05:09:52.346Z,1.00
2022-12-31T05:11:39.402Z,1.00
2022-12-31T05:13:32.720Z,1.00
2022-12-31T05:15:20.668Z,1.00
2022-12-31T05:17:09.986Z,1.00
2022-12-31T05:18:57.043Z,1.00
2022-12-31T05:20:44.838Z,1.00
2022-12-31T05:22:32.187Z,1.00
2022-12-31T05:24:19.145Z,1.00
2022-12-31T05:26:06.626Z,1.00
2022-12-31T05:27:53.708Z,1.00
2022-12-31T05:29:40.785Z,1.00
2022-12-31T05:31:28.069Z,1.00
2022-12-31T05:33:15.123Z,1.00
2022-12-31T05:35:02.133Z,1.00
2022-12-31T05:36:49.531Z,1.00
2022-12-31T05:38:37.436Z,1.00
2022-12-31T05:40:24.526Z,1.00
2022-12-31T05:42:11.784Z,1.00
2022-12-31T05:43:58.791Z,99.90
2022-12-31T05:45:45.751Z,99.90
2022-12-31T05:47:33.093Z,99.90
2022-12-31T05:49:20.052Z,99.90
2022-12-31T05:51:07.117Z,99.90
2022-12-31T05:52:54.455Z,99.90
2022-12-31T05:54:41.497Z,99.90
2022-12-31T05:56:28.489Z,99.90
2022-12-31T05:58:16.357Z,99.90
2022-12-31T06:00:04.473Z,99.90
2022-12-31T06:02:00.864Z,99.90
2022-12-31T06:03:48.293Z,99.90
2022-12-31T06:05:35.360Z,99.90
2022-12-31T06:07:22.935Z,99.90
2022-12-31T06:09:10.558Z,99.90
2022-12-31T06:10:57.568Z,99.90
2022-12-31T06:12:44.697Z,99.90
2022-12-31T06:14:32.108Z,99.90
2022-12-31T06:16:19.233Z,99.90
2022-12-31T06:18:07.241Z,99.90
2022-12-31T06:19:54.896Z,99.90
2022-12-31T06:21:41.889Z,99.90
2022-12-31T06:23:28.918Z,99.90
2022-12-31T06:25:16.301Z,1.00
2022-12-31T06:27:03.377Z,1.00
2022-12-31T06:28:50.365Z,99.90
2022-12-31T06:30:37.853Z,99.90
2022-12-31T06:32:25.436Z,99.90
2022-12-31T06:34:12.672Z,99.90
2022-12-31T06:36:01.017Z,99.90
2022-12-31T06:37:48.184Z,99.90
2022-12-31T06:39:35.217Z,99.90
2022-12-31T06:41:22.694Z,1.00
2022-12-31T06:43:10.247Z,99.90
2022-12-31T06:44:58.163Z,1.00
2022-12-31T06:46:45.849Z,1.00
2022-12-31T06:48:33.012Z,1.00
2022-12-31T06:50:20.030Z,1.00
2022-12-31T06:52:07.409Z,1.00
2022-12-31T06:53:54.550Z,1.00
2022-12-31T06:55:42.249Z,1.00
2022-12-31T06:57:29.674Z,1.00
2022-12-31T06:59:25.147Z,1.00
2022-12-31T07:01:14.913Z,1.00
2022-12-31T07:03:40.971Z,1.00
2022-12-31T07:05:35.422Z,1.00
2022-12-31T07:07:25.441Z,1.00
2022-12-31T07:09:12.764Z,1.00
2022-12-31T07:11:00.195Z,1.00
2022-12-31T07:12:47.689Z,1.00
2022-12-31T07:14:43.170Z,1.00
2022-12-31T07:16:36.171Z,1.00
2022-12-31T07:18:32.273Z,1.00
2022-12-31T07:20:20.447Z,1.00
2022-12-31T07:22:10.061Z,1.00
2022-12-31T07:23:57.633Z,1.00
2022-12-31T07:25:49.210Z,1.00
2022-12-31T07:27:50.529Z,1.00
2022-12-31T07:29:43.939Z,1.00
2022-12-31T07:31:42.515Z,1.00
2022-12-31T07:33:35.634Z,1.00
2022-12-31T07:35:41.052Z,1.00
2022-12-31T07:37:36.253Z,1.00
2022-12-31T07:39:32.204Z,1.00
2022-12-31T07:41:37.939Z,1.00
2022-12-31T07:43:28.233Z,99.90
2022-12-31T07:45:20.625Z,99.90
2022-12-31T07:47:16.224Z,99.90
2022-12-31T07:49:04.005Z,99.90
2022-12-31T07:50:52.489Z,99.90
2022-12-31T07:52:40.135Z,99.90
2022-12-31T07:54:28.669Z,99.90
2022-12-31T07:56:15.883Z,99.90
2022-12-31T07:58:06.065Z,99.90
2022-12-31T08:00:05.908Z,99.90
2022-12-31T08:02:00.230Z,99.90
2022-12-31T08:03:59.045Z,99.90
2022-12-31T08:05:51.840Z,99.90
2022-12-31T08:07:42.131Z,99.90
2022-12-31T08:09:34.865Z,99.90
2022-12-31T08:11:40.847Z,99.90
2022-12-31T08:13:27.973Z,99.90
2022-12-31T08:15:16.273Z,99.90
2022-12-31T08:17:03.859Z,99.90
2022-12-31T08:18:51.597Z,99.90
2022-12-31T08:20:48.533Z,99.90
2022-12-31T08:22:38.925Z,99.90
2022-12-31T08:24:39.718Z,99.90
2022-12-31T08:26:37.986Z,99.90
2022-12-31T08:28:39.643Z,99.90
2022-12-31T08:30:37.014Z,99.90
2022-12-31T08:32:26.595Z,99.90
2022-12-31T08:34:27.760Z,99.90
2022-12-31T08:36:14.751Z,99.90
2022-12-31T08:38:17.139Z,99.90
2022-12-31T08:40:16.823Z,99.90
2022-12-31T08:42:05.063Z,99.90
2022-12-31T08:44:02.446Z,99.90
2022-12-31T08:45:51.131Z,99.90
2022-12-31T08:47:38.687Z,70.70
2022-12-31T08:49:27.361Z,63.80
2022-12-31T08:51:18.273Z,38.60
2022-12-31T08:53:05.540Z,24.90
2022-12-31T08:54:53.082Z,10.60
2022-12-31T08:56:50.468Z,1.00
2022-12-31T08:58:53.291Z,1.00
2022-12-31T09:00:40.835Z,1.00
2022-12-31T09:02:39.349Z,1.00
2022-12-31T09:04:33.042Z,1.00
2022-12-31T09:06:25.710Z,1.00
2022-12-31T09:08:25.248Z,1.00
2022-12-31T09:10:19.744Z,1.00
2022-12-31T09:12:12.723Z,1.00
2022-12-31T09:14:04.803Z,1.00
2022-12-31T09:16:11.144Z,1.00
2022-12-31T09:17:58.745Z,1.00
2022-12-31T09:19:46.442Z,1.00
2022-12-31T09:21:33.614Z,1.00
2022-12-31T09:23:20.765Z,1.00
2022-12-31T09:25:12.604Z,1.00
2022-12-31T09:27:00.455Z,1.00
2022-12-31T09:28:47.685Z,99.90
2022-12-31T09:30:57.183Z,99.90
2022-12-31T09:33:00.763Z,99.90
2022-12-31T09:34:48.822Z,99.90
2022-12-31T09:36:44.945Z,99.90
2022-12-31T09:38:35.115Z,99.90
2022-12-31T09:40:28.452Z,99.90
2022-12-31T09:42:34.500Z,99.90
2022-12-31T09:44:39.977Z,99.90
2022-12-31T09:46:45.939Z,99.90
2022-12-31T09:48:51.040Z,99.90
2022-12-31T09:50:42.746Z,99.90
2022-12-31T09:52:36.722Z,99.90
2022-12-31T09:54:24.068Z,99.90
2022-12-31T09:56:13.851Z,99.90
2022-12-31T09:58:01.125Z,99.90
2022-12-31T09:59:55.886Z,99.90
2022-12-31T10:01:43.801Z,99.90
2022-12-31T10:03:49.798Z,99.90
2022-12-31T10:05:57.078Z,99.90
2022-12-31T10:07:53.557Z,99.90
2022-12-31T10:09:56.018Z,99.90
2022-12-31T10:11:49.441Z,99.90
2022-12-31T10:13:56.931Z,99.90
2022-12-31T10:15:53.083Z,99.90
2022-12-31T10:17:46.695Z,99.90
2022-12-31T10:19:59.741Z,99.90
2022-12-31T10:22:05.754Z,99.90
2022-12-31T10:24:05.295Z,99.90
2022-12-31T10:26:11.048Z,99.90
2022-12-31T10:28:07.098Z,1.00
2022-12-31T10:30:03.796Z,1.00
2022-12-31T10:32:04.954Z,1.00
2022-12-31T10:33:51.972Z,1.00
2022-12-31T10:35:46.318Z,99.90
2022-12-31T10:37:33.405Z,1.00
2022-12-31T10:39:47.619Z,92.60
2022-12-31T10:41:34.992Z,99.90
2022-12-31T10:43:41.043Z,1.00
2022-12-31T10:45:34.446Z,17.20
2022-12-31T10:47:37.090Z,99.90
2022-12-31T10:49:42.842Z,99.90
2022-12-31T10:51:48.751Z,99.90
2022-12-31T10:53:38.350Z,99.90
2022-12-31T10:55:25.513Z,99.90
2022-12-31T10:57:24.747Z,99.90
2022-12-31T10:59:15.013Z,99.90
2022-12-31T11:01:20.789Z,99.90
2022-12-31T11:03:07.981Z,99.90
2022-12-31T11:05:15.624Z,99.90
2022-12-31T11:07:14.807Z,99.90
2022-12-31T11:09:20.648Z,99.90
2022-12-31T11:11:08.030Z,99.90
2022-12-31T11:12:55.184Z,99.90
2022-12-31T11:14:42.134Z,99.90
2022-12-31T11:16:34.390Z,99.90
2022-12-31T11:18:31.152Z,99.90
2022-12-31T11:20:27.407Z,99.90
2022-12-31T11:22:38.963Z,99.90
2022-12-31T11:24:51.367Z,80.10
2022-12-31T11:26:48.670Z,1.00
2022-12-31T11:28:38.740Z,1.00
2022-12-31T11:30:49.015Z,1.00
2022-12-31T11:32:44.684Z,99.90
2022-12-31T11:34:38.085Z,99.90
2022-12-31T11:36:43.782Z,99.90
2022-12-31T11:38:36.219Z,99.90
2022-12-31T11:40:26.812Z,99.90
2022-12-31T11:42:52.292Z,99.90
2022-12-31T11:44:49.859Z,1.00
2022-12-31T11:46:37.512Z,1.00
2022-12-31T11:48:31.734Z,1.00
2022-12-31T11:50:22.605Z,99.90
2022-12-31T11:52:21.332Z,99.90
2022-12-31T11:54:14.896Z,99.90
2022-12-31T11:56:04.834Z,99.90
2022-12-31T11:57:52.477Z,99.90
2022-12-31T11:59:40.870Z,99.90
2022-12-31T12:01:31.992Z,99.90
2022-12-31T12:03:19.783Z,99.90
2022-12-31T12:05:10.926Z,99.90
2022-12-31T12:06:58.897Z,68.20
2022-12-31T12:08:46.804Z,38.30
2022-12-31T12:10:44.210Z,1.00
2022-12-31T12:12:40.984Z,1.00
2022-12-31T12:14:32.913Z,26.20
2022-12-31T12:16:21.402Z,1.00
2022-12-31T12:18:13.187Z,99.90
2022-12-31T12:20:02.158Z,99.90
2022-12-31T12:21:49.350Z,99.90
2022-12-31T12:23:36.998Z,99.90
2022-12-31T12:25:26.493Z,99.90
2022-12-31T12:27:22.439Z,99.90
2022-12-31T12:29:16.578Z,99.90
2022-12-31T12:31:05.546Z,99.90
2022-12-31T12:32:52.793Z,99.90
2022-12-31T12:34:45.935Z,99.90
2022-12-31T12:36:45.876Z,99.90
2022-12-31T12:38:33.788Z,99.90
2022-12-31T12:40:22.246Z,99.90
2022-12-31T12:42:16.235Z,99.90
2022-12-31T12:44:07.362Z,99.90
2022-12-31T12:45:56.388Z,99.90
2022-12-31T12:47:44.957Z,1.00
2022-12-31T12:49:37.448Z,1.00
2022-12-31T12:51:27.607Z,99.90
2022-12-31T12:53:18.741Z,99.90
2022-12-31T12:55:27.668Z,99.90
2022-12-31T12:57:21.151Z,99.90
2022-12-31T12:59:08.578Z,1.00
2022-12-31T13:01:04.084Z,99.90
2022-12-31T13:02:57.341Z,99.90
2022-12-31T13:05:03.088Z,99.90
2022-12-31T13:06:57.719Z,99.90
2022-12-31T13:09:17.158Z,99.90
2022-12-31T13:11:18.519Z,99.90
2022-12-31T13:13:28.454Z,99.90
2022-12-31T13:15:21.765Z,99.90
2022-12-31T13:17:09.116Z,99.90
2022-12-31T13:19:03.390Z,99.90
2022-12-31T13:20:56.631Z,99.90
2022-12-31T13:22:47.529Z,99.90
2022-12-31T13:24:40.477Z,99.90
2022-12-31T13:26:30.195Z,99.90
2022-12-31T13:28:19.197Z,99.90
2022-12-31T13:30:18.314Z,99.90
2022-12-31T13:32:07.762Z,99.90
2022-12-31T13:34:04.260Z,99.90
2022-12-31T13:35:56.382Z,99.90
2022-12-31T13:37:44.372Z,99.90
2022-12-31T13:39:36.530Z,99.90
2022-12-31T13:41:33.142Z,99.90
2022-12-31T13:43:23.017Z,99.90
2022-12-31T13:45:13.723Z,99.90
2022-12-31T13:47:13.123Z,99.90
2022-12-31T13:49:03.105Z,99.90
2022-12-31T13:51:20.190Z,99.90
2022-12-31T13:53:12.389Z,99.90
2022-12-31T13:55:08.147Z,99.90
2022-12-31T13:56:57.359Z,99.90
2022-12-31T13:58:50.262Z,99.90
2022-12-31T14:00:41.220Z,99.90
2022-12-31T14:02:31.766Z,99.90
2022-12-31T14:04:23.805Z,99.90
2022-12-31T14:06:22.691Z,99.90
2022-12-31T14:08:10.879Z,99.90
2022-12-31T14:09:58.332Z,99.90
2022-12-31T14:11:51.732Z,99.90
2022-12-31T14:14:07.905Z,99.90
2022-12-31T14:16:12.257Z,99.90
2022-12-31T14:18:05.624Z,99.90
2022-12-31T14:19:58.917Z,99.90
2022-12-31T14:21:45.876Z,99.90
2022-12-31T14:23:38.874Z,99.90
2022-12-31T14:25:29.213Z,99.90
2022-12-31T14:27:19.751Z,99.90
2022-12-31T14:29:14.841Z,99.90
2022-12-31T14:31:15.012Z,99.90
2022-12-31T14:33:02.107Z,99.90
2022-12-31T14:34:52.528Z,99.90
2022-12-31T14:36:46.531Z,99.90
2022-12-31T14:39:00.063Z,99.90
2022-12-31T14:41:05.963Z,99.90
2022-12-31T14:42:53.363Z,99.90
2022-12-31T14:44:52.663Z,99.90
2022-12-31T14:46:48.748Z,99.90
2022-12-31T14:48:39.068Z,99.90
2022-12-31T14:50:27.729Z,99.90
2022-12-31T14:52:23.002Z,99.90
2022-12-31T14:54:28.736Z,99.90
2022-12-31T14:56:31.733Z,99.90
2022-12-31T14:58:28.131Z,99.90
2022-12-31T15:00:33.242Z,99.90
2022-12-31T15:02:27.703Z,99.90
2022-12-31T15:04:15.441Z,99.90
2022-12-31T15:06:06.098Z,99.90
2022-12-31T15:08:11.760Z,99.90
2022-12-31T15:10:09.803Z,99.90
2022-12-31T15:11:59.948Z,99.90
2022-12-31T15:14:22.632Z,99.90
2022-12-31T15:16:09.568Z,99.90
2022-12-31T15:18:05.315Z,99.90
2022-12-31T15:19:52.453Z,99.90
2022-12-31T15:21:52.880Z,99.90
2022-12-31T15:23:42.430Z,99.90
2022-12-31T15:25:40.360Z,99.90
2022-12-31T15:27:35.576Z,99.90
2022-12-31T15:29:26.131Z,99.90
2022-12-31T15:31:17.821Z,99.90
2022-12-31T15:33:44.545Z,99.90
2022-12-31T15:35:48.721Z,99.90
2022-12-31T15:37:36.719Z,99.90
2022-12-31T15:39:32.877Z,99.90
2022-12-31T15:41:20.303Z,99.90
2022-12-31T15:43:16.583Z,99.90
2022-12-31T15:45:06.182Z,99.90
2022-12-31T15:47:00.796Z,99.90
2022-12-31T15:49:02.046Z,99.90
2022-12-31T15:50:54.560Z,99.90
2022-12-31T15:52:43.695Z,99.90
2022-12-31T15:54:30.818Z,99.90
2022-12-31T15:56:20.775Z,99.90
2022-12-31T15:58:16.847Z,99.90
2022-12-31T16:00:09.269Z,99.90
2022-12-31T16:01:56.824Z,99.90
2022-12-31T16:03:46.552Z,99.90
2022-12-31T16:05:34.148Z,99.90
2022-12-31T16:07:21.639Z,99.90
2022-12-31T16:09:16.324Z,99.90
2022-12-31T16:11:05.055Z,99.90
2022-12-31T16:12:52.987Z,99.90
2022-12-31T16:14:44.934Z,99.90
2022-12-31T16:16:32.464Z,99.90
2022-12-31T16:18:23.195Z,99.90
2022-12-31T16:20:22.342Z,1.00
2022-12-31T16:22:24.375Z,1.00
2022-12-31T16:24:28.896Z,1.00
2022-12-31T16:26:16.258Z,99.90
2022-12-31T16:28:03.669Z,1.00
2022-12-31T16:29:56.515Z,1.00
2022-12-31T16:31:44.709Z,99.90
2022-12-31T16:33:32.345Z,99.90
2022-12-31T16:35:23.614Z,99.90
2022-12-31T16:37:16.028Z,99.90
2022-12-31T16:39:29.498Z,99.90
2022-12-31T16:41:16.893Z,99.90
2022-12-31T16:43:04.718Z,99.90
2022-12-31T16:44:52.703Z,99.90
2022-12-31T16:46:40.826Z,99.90
2022-12-31T16:48:28.869Z,99.90
2022-12-31T16:50:17.840Z,99.90
2022-12-31T16:52:07.786Z,99.90
2022-12-31T16:53:55.351Z,99.90
2022-12-31T16:55:42.603Z,99.90
2022-12-31T16:57:30.840Z,99.90
2022-12-31T16:59:24.091Z,99.90
2022-12-31T17:01:16.627Z,99.90
2022-12-31T17:03:08.932Z,99.90
2022-12-31T17:04:56.775Z,99.90
2022-12-31T17:06:44.349Z,99.90
2022-12-31T17:10:12.986Z,99.90
2022-12-31T17:12:29.206Z,99.90
2022-12-31T17:14:47.500Z,99.90
2022-12-31T17:16:36.136Z,99.90
2022-12-31T17:18:24.835Z,99.90
2022-12-31T17:20:19.526Z,99.90
2022-12-31T17:22:15.896Z,99.90
2022-12-31T17:24:06.586Z,99.90
2022-12-31T17:26:19.876Z,99.90
2022-12-31T17:28:18.746Z,99.90
2022-12-31T17:30:23.490Z,99.90
2022-12-31T17:32:23.049Z,99.90
2022-12-31T17:34:13.255Z,99.90
2022-12-31T17:36:23.124Z,99.90
2022-12-31T17:38:23.308Z,99.90
2022-12-31T17:42:38.756Z,99.90
2022-12-31T17:44:28.117Z,99.90
2022-12-31T17:46:16.497Z,99.90
2022-12-31T17:48:04.177Z,99.90
2022-12-31T17:49:53.388Z,99.90
2022-12-31T17:51:47.192Z,99.90
2022-12-31T17:54:34.320Z,99.90
2022-12-31T17:56:22.108Z,99.90
2022-12-31T17:58:15.463Z,99.90
2022-12-31T18:00:06.164Z,99.90
2022-12-31T18:02:01.246Z,99.90
2022-12-31T18:03:48.871Z,99.90
2022-12-31T18:05:36.610Z,99.90
2022-12-31T18:07:24.267Z,99.90
2022-12-31T18:09:12.343Z,1.00
2022-12-31T18:10:59.884Z,1.00
2022-12-31T18:12:48.257Z,1.00
2022-12-31T18:14:35.678Z,1.00
2022-12-31T18:16:23.014Z,1.00
2022-12-31T18:18:31.084Z,1.00
2022-12-31T18:20:18.795Z,1.00
2022-12-31T18:22:06.388Z,1.00
2022-12-31T18:27:26.377Z,1.00
2022-12-31T18:29:15.132Z,1.00
2022-12-31T18:31:03.159Z,1.00
2022-12-31T18:32:50.515Z,1.00
2022-12-31T18:34:39.037Z,1.00
2022-12-31T18:36:27.938Z,1.00
2022-12-31T18:38:16.249Z,1.00
2022-12-31T18:40:03.946Z,1.00
2022-12-31T18:41:52.268Z,1.00
2022-12-31T18:43:39.583Z,1.00
2022-12-31T18:45:27.224Z,1.00
2022-12-31T18:47:16.073Z,1.00
2022-12-31T18:49:03.448Z,1.00
2022-12-31T18:50:51.020Z,1.00
2022-12-31T18:52:38.712Z,1.00
2022-12-31T18:54:25.913Z,1.00
2022-12-31T18:56:14.629Z,1.00
2022-12-31T18:58:01.845Z,1.00
2022-12-31T18:59:48.854Z,1.00
2022-12-31T19:01:40.460Z,1.00
2022-12-31T19:03:28.398Z,1.00
2022-12-31T19:05:26.554Z,1.00
2022-12-31T19:07:13.924Z,1.00
2022-12-31T19:09:01.332Z,1.00
2022-12-31T19:10:49.358Z,1.00
2022-12-31T19:12:36.692Z,1.00
2022-12-31T19:14:25.073Z,1.00
2022-12-31T19:16:14.044Z,1.00
2022-12-31T19:18:02.586Z,1.00
2022-12-31T19:19:49.751Z,1.00
2022-12-31T19:21:36.720Z,1.00
2022-12-31T19:23:24.091Z,1.00
2022-12-31T19:25:16.470Z,1.00
2022-12-31T19:27:03.607Z,1.00
2022-12-31T19:28:51.250Z,1.00
2022-12-31T19:30:38.982Z,1.00
2022-12-31T19:32:26.016Z,1.00
2022-12-31T19:34:13.408Z,1.00
2022-12-31T19:36:00.529Z,1.00
2022-12-31T19:37:48.367Z,1.00
2022-12-31T19:39:35.557Z,1.00
2022-12-31T19:41:22.674Z,1.00
2022-12-31T19:43:12.498Z,1.00
2022-12-31T19:44:59.856Z,1.00
2022-12-31T19:46:47.409Z,1.00
2022-12-31T19:48:34.563Z,1.00
2022-12-31T19:50:26.103Z,1.00
2022-12-31T19:52:13.224Z,1.00
2022-12-31T19:54:00.284Z,1.00
2022-12-31T19:55:48.340Z,1.00
2022-12-31T19:57:35.388Z,1.00
2022-12-31T19:59:22.462Z,1.00
2022-12-31T20:01:17.559Z,99.90
2022-12-31T20:03:04.903Z,1.00
2022-12-31T20:04:52.738Z,1.00
2022-12-31T20:06:40.173Z,1.00
2022-12-31T20:08:27.315Z,1.00
2022-12-31T20:10:14.672Z,1.00
2022-12-31T20:12:01.989Z,1.00
2022-12-31T20:13:50.114Z,1.00
2022-12-31T20:15:47.609Z,1.00
2022-12-31T20:17:35.155Z,1.00
2022-12-31T20:19:22.278Z,1.00
2022-12-31T20:21:13.472Z,1.00
2022-12-31T20:23:01.108Z,1.00
2022-12-31T20:24:48.556Z,1.00
2022-12-31T20:26:35.545Z,1.00
2022-12-31T20:28:22.951Z,1.00
2022-12-31T20:30:10.358Z,1.00
2022-12-31T20:31:57.420Z,1.00
2022-12-31T20:33:44.875Z,1.00
2022-12-31T20:35:32.663Z,1.00
2022-12-31T20:37:19.895Z,1.00
2022-12-31T20:39:07.304Z,1.00
2022-12-31T20:40:54.293Z,1.00
2022-12-31T20:42:41.480Z,1.00
2022-12-31T20:44:28.717Z,1.00
2022-12-31T20:46:19.041Z,1.00
2022-12-31T20:48:06.125Z,1.00
2022-12-31T20:50:11.194Z,1.00
2022-12-31T20:51:59.157Z,1.00
2022-12-31T20:53:50.645Z,1.00
2022-12-31T20:55:38.007Z,1.00
2022-12-31T20:57:28.825Z,1.00
2022-12-31T20:59:20.273Z,1.00
2022-12-31T21:01:08.707Z,1.00
2022-12-31T21:03:06.432Z,1.00
2022-12-31T21:04:57.865Z,1.00
2022-12-31T21:06:45.230Z,1.00
2022-12-31T21:08:35.012Z,1.00
2022-12-31T21:10:22.377Z,1.00
2022-12-31T21:12:30.244Z,1.00
2022-12-31T21:14:17.362Z,1.00
2022-12-31T21:16:04.568Z,1.00
2022-12-31T21:17:51.925Z,1.00
2022-12-31T21:19:39.678Z,1.00
2022-12-31T21:21:26.862Z,1.00
2022-12-31T21:23:14.399Z,1.00
2022-12-31T21:25:02.237Z,1.00
2022-12-31T21:26:49.281Z,1.00
2022-12-31T21:28:36.593Z,1.00
2022-12-31T21:30:23.910Z,1.00
2022-12-31T21:32:11.034Z,1.00
2022-12-31T21:33:58.345Z,1.00
2022-12-31T21:35:53.587Z,1.00
2022-12-31T21:37:58.746Z,1.00
2022-12-31T21:39:48.770Z,1.00
2022-12-31T21:41:51.058Z,1.00
2022-12-31T21:43:38.649Z,1.00
2022-12-31T21:45:26.351Z,1.00
2022-12-31T21:47:39.533Z,1.00
2022-12-31T21:49:29.857Z,1.00
2022-12-31T21:51:18.124Z,1.00
2022-12-31T21:53:05.353Z,1.00
2022-12-31T21:55:11.185Z,1.00
2022-12-31T21:56:58.570Z,1.00
2022-12-31T21:58:47.237Z,1.00
2022-12-31T22:00:53.622Z,1.00
2022-12-31T22:03:00.144Z,1.00
2022-12-31T22:05:05.678Z,99.90
2022-12-31T22:06:55.192Z,99.90
2022-12-31T22:08:45.399Z,99.90
2022-12-31T22:10:37.128Z,99.90
2022-12-31T22:12:24.548Z,99.90
2022-12-31T22:14:12.073Z,99.90
2022-12-31T22:16:04.835Z,99.90
2022-12-31T22:17:52.598Z,99.90
2022-12-31T22:20:01.036Z,99.90
2022-12-31T22:21:47.464Z,99.90
2022-12-31T22:23:35.210Z,99.90
2022-12-31T22:25:23.098Z,99.90
2022-12-31T22:27:28.413Z,99.90
2022-12-31T22:29:17.211Z,99.90
2022-12-31T22:31:04.651Z,99.90
2022-12-31T22:32:51.733Z,99.90
2022-12-31T22:34:38.930Z,99.90
2022-12-31T22:37:56.755Z,99.90
2022-12-31T22:39:46.425Z,99.90
2022-12-31T22:41:34.177Z,99.90
2022-12-31T22:43:21.617Z,99.90
2022-12-31T22:45:09.694Z,99.90
2022-12-31T22:46:56.938Z,99.90
2022-12-31T22:48:44.135Z,99.90
2022-12-31T22:50:31.480Z,99.90
2022-12-31T22:52:18.615Z,99.90
2022-12-31T22:54:05.783Z,99.90
2022-12-31T22:55:54.375Z,99.90
2022-12-31T22:57:41.393Z,99.90
2022-12-31T22:59:28.405Z,99.90
2022-12-31T23:01:15.846Z,99.90
2022-12-31T23:03:02.991Z,99.90
2022-12-31T23:04:50.079Z,99.90
2022-12-31T23:06:43.670Z,99.90
2022-12-31T23:08:30.846Z,99.90
2022-12-31T23:10:36.412Z,99.90
2022-12-31T23:12:24.407Z,99.90
2022-12-31T23:14:34.062Z,99.90
2022-12-31T23:16:40.191Z,99.90
2022-12-31T23:18:46.570Z,99.90
2022-12-31T23:20:52.812Z,99.90
2022-12-31T23:22:58.440Z,99.90
2022-12-31T23:24:46.566Z,99.90
2022-12-31T23:26:33.611Z,99.90
2022-12-31T23:28:24.628Z,99.90
2022-12-31T23:30:12.325Z,99.90
2022-12-31T23:31:59.907Z,99.90
2022-12-31T23:33:47.104Z,99.90
2022-12-31T23:35:34.674Z,99.90
2022-12-31T23:37:21.805Z,99.90
2022-12-31T23:39:09.202Z,99.90
2022-12-31T23:40:56.628Z,99.90
2022-12-31T23:42:43.734Z,99.90
2022-12-31T23:44:30.791Z,99.90
2022-12-31T23:46:18.349Z,99.90
2022-12-31T23:48:05.687Z,99.90
2022-12-31T23:49:53.060Z,99.90
2022-12-31T23:51:40.707Z,99.90
2022-12-31T23:53:28.165Z,99.90
2022-12-31T23:55:15.427Z,99.90
2022-12-31T23:57:03.183Z,99.90
2022-12-31T23:58:53.802Z,99.90
